sensor_id;sensor_type;location;lat;lon;timestamp;pressure;altitude;pressure_sealevel;temperature;humidity
39715;BME280;54166;53.172;-6.552;2023-02-13T00:01:17;100543.05;;;16.05;33.13
39715;BME280;54166;53.172;-6.552;2023-02-13T00:03:45;100550.30;;;16.03;33.11
39715;BME280;54166;53.172;-6.552;2023-02-13T00:06:11;100552.56;;;15.97;33.17
39715;BME280;54166;53.172;-6.552;2023-02-13T00:08:39;100556.84;;;15.94;33.18
39715;BME280;54166;53.172;-6.552;2023-02-13T00:11:06;100559.03;;;15.91;33.18
39715;BME280;54166;53.172;-6.552;2023-02-13T00:13:34;100565.50;;;15.89;33.12
39715;BME280;54166;53.172;-6.552;2023-02-13T00:16:03;100564.92;;;15.87;33.09
39715;BME280;54166;53.172;-6.552;2023-02-13T00:18:34;100565.85;;;15.86;33.19
39715;BME280;54166;53.172;-6.552;2023-02-13T00:21:03;100564.03;;;15.50;33.13
39715;BME280;54166;53.172;-6.552;2023-02-13T00:23:31;100560.85;;;15.81;33.23
39715;BME280;54166;53.172;-6.552;2023-02-13T00:26:00;100565.13;;;15.79;33.27
39715;BME280;54166;53.172;-6.552;2023-02-13T00:28:27;100560.60;;;15.45;33.35
39715;BME280;54166;53.172;-6.552;2023-02-13T00:31:02;100559.91;;;15.76;33.25
39715;BME280;54166;53.172;-6.552;2023-02-13T00:33:30;100556.57;;;15.74;33.31
39715;BME280;54166;53.172;-6.552;2023-02-13T00:36:03;100564.14;;;15.75;33.42
39715;BME280;54166;53.172;-6.552;2023-02-13T00:38:30;100561.76;;;15.74;33.46
39715;BME280;54166;53.172;-6.552;2023-02-13T00:40:58;100565.23;;;15.78;33.58
39715;BME280;54166;53.172;-6.552;2023-02-13T00:43:26;100560.23;;;15.79;33.58
39715;BME280;54166;53.172;-6.552;2023-02-13T00:45:53;100563.04;;;15.78;33.57
39715;BME280;54166;53.172;-6.552;2023-02-13T00:48:21;100552.71;;;15.79;33.36
39715;BME280;54166;53.172;-6.552;2023-02-13T00:50:48;100553.63;;;15.80;33.33
39715;BME280;54166;53.172;-6.552;2023-02-13T00:53:15;100562.37;;;15.80;33.35
39715;BME280;54166;53.172;-6.552;2023-02-13T00:55:42;100558.94;;;15.81;33.32
39715;BME280;54166;53.172;-6.552;2023-02-13T00:58:09;100556.16;;;15.81;33.36
39715;BME280;54166;53.172;-6.552;2023-02-13T01:00:36;100555.38;;;15.81;33.61
39715;BME280;54166;53.172;-6.552;2023-02-13T01:03:04;100554.06;;;15.80;33.41
39715;BME280;54166;53.172;-6.552;2023-02-13T01:05:32;100548.07;;;15.79;33.24
39715;BME280;54166;53.172;-6.552;2023-02-13T01:07:59;100543.70;;;15.78;33.24
39715;BME280;54166;53.172;-6.552;2023-02-13T01:10:26;100551.17;;;15.76;33.27
39715;BME280;54166;53.172;-6.552;2023-02-13T01:12:54;100549.18;;;15.73;33.21
39715;BME280;54166;53.172;-6.552;2023-02-13T01:15:24;100540.27;;;15.72;33.28
39715;BME280;54166;53.172;-6.552;2023-02-13T01:17:57;100549.78;;;15.71;33.21
39715;BME280;54166;53.172;-6.552;2023-02-13T01:20:28;100552.18;;;15.69;33.23
39715;BME280;54166;53.172;-6.552;2023-02-13T01:23:01;100546.59;;;15.68;33.15
39715;BME280;54166;53.172;-6.552;2023-02-13T01:25:28;100551.76;;;15.66;33.11
39715;BME280;54166;53.172;-6.552;2023-02-13T01:27:56;100552.99;;;15.66;33.01
39715;BME280;54166;53.172;-6.552;2023-02-13T01:30:25;100548.66;;;15.65;32.96
39715;BME280;54166;53.172;-6.552;2023-02-13T01:32:53;100553.11;;;15.96;32.80
39715;BME280;54166;53.172;-6.552;2023-02-13T01:35:20;100550.41;;;15.62;32.71
39715;BME280;54166;53.172;-6.552;2023-02-13T01:37:47;100546.08;;;15.61;32.62
39715;BME280;54166;53.172;-6.552;2023-02-13T01:40:14;100542.73;;;15.61;32.64
39715;BME280;54166;53.172;-6.552;2023-02-13T01:42:41;100532.76;;;15.92;32.53
39715;BME280;54166;53.172;-6.552;2023-02-13T01:45:22;100531.32;;;15.58;32.63
39715;BME280;54166;53.172;-6.552;2023-02-13T01:47:53;100527.96;;;15.88;32.62
39715;BME280;54166;53.172;-6.552;2023-02-13T01:50:27;100521.92;;;15.53;32.49
39715;BME280;54166;53.172;-6.552;2023-02-13T01:53:00;100521.68;;;15.52;32.54
39715;BME280;54166;53.172;-6.552;2023-02-13T01:55:30;100527.18;;;15.50;32.69
39715;BME280;54166;53.172;-6.552;2023-02-13T01:58:06;100527.01;;;15.50;32.60
39715;BME280;54166;53.172;-6.552;2023-02-13T02:00:36;100521.14;;;15.49;32.56
39715;BME280;54166;53.172;-6.552;2023-02-13T02:03:09;100520.03;;;15.82;32.60
39715;BME280;54166;53.172;-6.552;2023-02-13T02:05:38;100524.07;;;15.81;32.69
39715;BME280;54166;53.172;-6.552;2023-02-13T02:08:08;100523.25;;;15.47;32.66
39715;BME280;54166;53.172;-6.552;2023-02-13T02:10:37;100520.62;;;15.79;32.57
39715;BME280;54166;53.172;-6.552;2023-02-13T02:13:07;100520.42;;;15.44;32.61
39715;BME280;54166;53.172;-6.552;2023-02-13T02:15:36;100520.54;;;15.44;32.64
39715;BME280;54166;53.172;-6.552;2023-02-13T02:18:06;100521.99;;;15.44;32.52
39715;BME280;54166;53.172;-6.552;2023-02-13T02:21:00;100517.70;;;15.75;32.59
39715;BME280;54166;53.172;-6.552;2023-02-13T02:23:46;100522.44;;;15.37;32.54
39715;BME280;54166;53.172;-6.552;2023-02-13T02:26:34;100513.42;;;15.35;32.63
39715;BME280;54166;53.172;-6.552;2023-02-13T02:29:22;100507.92;;;15.32;32.65
39715;BME280;54166;53.172;-6.552;2023-02-13T02:32:07;100511.31;;;15.32;32.70
39715;BME280;54166;53.172;-6.552;2023-02-13T02:34:45;100514.26;;;15.64;32.60
39715;BME280;54166;53.172;-6.552;2023-02-13T02:37:23;100516.58;;;15.64;32.56
39715;BME280;54166;53.172;-6.552;2023-02-13T02:40:05;100514.16;;;15.63;32.61
39715;BME280;54166;53.172;-6.552;2023-02-13T02:42:42;100508.87;;;15.63;32.57
39715;BME280;54166;53.172;-6.552;2023-02-13T02:45:20;100505.60;;;15.62;32.67
39715;BME280;54166;53.172;-6.552;2023-02-13T02:47:53;100508.69;;;15.61;32.60
39715;BME280;54166;53.172;-6.552;2023-02-13T02:50:31;100505.58;;;15.30;32.76
39715;BME280;54166;53.172;-6.552;2023-02-13T02:53:10;100500.83;;;15.61;32.73
39715;BME280;54166;53.172;-6.552;2023-02-13T02:55:45;100499.85;;;15.58;32.73
39715;BME280;54166;53.172;-6.552;2023-02-13T02:58:19;100497.33;;;15.59;32.75
39715;BME280;54166;53.172;-6.552;2023-02-13T03:00:48;100492.59;;;15.59;32.65
39715;BME280;54166;53.172;-6.552;2023-02-13T03:03:27;100489.29;;;16.32;32.78
39715;BME280;54166;53.172;-6.552;2023-02-13T03:05:56;100492.82;;;15.23;32.64
39715;BME280;54166;53.172;-6.552;2023-02-13T03:08:27;100489.90;;;15.97;32.65
39715;BME280;54166;53.172;-6.552;2023-02-13T03:10:55;100491.56;;;15.24;32.68
39715;BME280;54166;53.172;-6.552;2023-02-13T03:13:38;100493.04;;;15.59;32.75
39715;BME280;54166;53.172;-6.552;2023-02-13T03:16:11;100489.89;;;15.53;33.00
39715;BME280;54166;53.172;-6.552;2023-02-13T03:18:44;100482.08;;;15.51;32.92
39715;BME280;54166;53.172;-6.552;2023-02-13T03:21:16;100479.19;;;15.53;32.92
39715;BME280;54166;53.172;-6.552;2023-02-13T03:23:52;100478.72;;;15.52;32.94
39715;BME280;54166;53.172;-6.552;2023-02-13T03:26:38;100479.36;;;15.18;32.88
39715;BME280;54166;53.172;-6.552;2023-02-13T03:29:13;100481.03;;;15.89;32.88
39715;BME280;54166;53.172;-6.552;2023-02-13T03:31:51;100480.49;;;15.48;32.92
39715;BME280;54166;53.172;-6.552;2023-02-13T03:34:23;100478.48;;;15.46;33.09
39715;BME280;54166;53.172;-6.552;2023-02-13T03:36:56;100473.12;;;15.86;32.94
39715;BME280;54166;53.172;-6.552;2023-02-13T03:39:34;100469.00;;;15.46;32.95
39715;BME280;54166;53.172;-6.552;2023-02-13T03:42:09;100467.43;;;15.44;32.85
39715;BME280;54166;53.172;-6.552;2023-02-13T03:44:41;100466.02;;;15.12;32.81
39715;BME280;54166;53.172;-6.552;2023-02-13T03:47:10;100457.39;;;15.45;32.84
39715;BME280;54166;53.172;-6.552;2023-02-13T03:49:42;100460.00;;;15.12;32.73
39715;BME280;54166;53.172;-6.552;2023-02-13T03:52:16;100452.55;;;15.45;33.04
39715;BME280;54166;53.172;-6.552;2023-02-13T03:54:47;100457.10;;;15.43;32.85
39715;BME280;54166;53.172;-6.552;2023-02-13T03:57:18;100453.52;;;15.83;32.93
39715;BME280;54166;53.172;-6.552;2023-02-13T03:59:46;100449.20;;;15.42;33.06
39715;BME280;54166;53.172;-6.552;2023-02-13T04:02:19;100450.44;;;15.42;32.78
39715;BME280;54166;53.172;-6.552;2023-02-13T04:04:53;100441.62;;;15.07;32.96
39715;BME280;54166;53.172;-6.552;2023-02-13T04:07:24;100443.25;;;15.78;33.01
39715;BME280;54166;53.172;-6.552;2023-02-13T04:09:51;100437.77;;;15.78;33.06
39715;BME280;54166;53.172;-6.552;2023-02-13T04:12:20;100440.78;;;15.05;33.02
39715;BME280;54166;53.172;-6.552;2023-02-13T04:14:56;100441.11;;;15.03;32.89
39715;BME280;54166;53.172;-6.552;2023-02-13T04:17:30;100434.08;;;15.75;33.11
39715;BME280;54166;53.172;-6.552;2023-02-13T04:19:59;100427.74;;;15.34;32.83
39715;BME280;54166;53.172;-6.552;2023-02-13T04:22:26;100424.28;;;15.34;32.95
39715;BME280;54166;53.172;-6.552;2023-02-13T04:24:53;100428.38;;;15.75;33.06
39715;BME280;54166;53.172;-6.552;2023-02-13T04:27:20;100431.46;;;15.75;33.12
39715;BME280;54166;53.172;-6.552;2023-02-13T04:29:49;100430.19;;;15.34;33.06
39715;BME280;54166;53.172;-6.552;2023-02-13T04:32:16;100423.30;;;15.33;32.95
39715;BME280;54166;53.172;-6.552;2023-02-13T04:34:43;100424.91;;;15.33;33.02
39715;BME280;54166;53.172;-6.552;2023-02-13T04:37:10;100425.06;;;15.32;33.10
39715;BME280;54166;53.172;-6.552;2023-02-13T04:39:37;100417.28;;;15.31;32.95
39715;BME280;54166;53.172;-6.552;2023-02-13T04:42:04;100419.04;;;15.30;32.54
39715;BME280;54166;53.172;-6.552;2023-02-13T04:44:31;100417.50;;;15.29;32.87
39715;BME280;54166;53.172;-6.552;2023-02-13T04:46:58;100425.70;;;14.95;32.91
39715;BME280;54166;53.172;-6.552;2023-02-13T04:49:25;100420.11;;;15.27;32.77
39715;BME280;54166;53.172;-6.552;2023-02-13T04:51:52;100424.55;;;15.26;32.88
39715;BME280;54166;53.172;-6.552;2023-02-13T05:05:14;100429.98;;;15.82;34.38
39715;BME280;54166;53.172;-6.552;2023-02-13T05:07:41;100421.57;;;12.84;33.52
39715;BME280;54166;53.172;-6.552;2023-02-13T05:10:10;100423.57;;;15.32;32.46
39715;BME280;54166;53.172;-6.552;2023-02-13T05:12:37;100410.14;;;15.46;32.70
39715;BME280;54166;53.172;-6.552;2023-02-13T05:15:06;100409.81;;;14.98;32.38
39715;BME280;54166;53.172;-6.552;2023-02-13T05:17:33;100409.24;;;15.23;32.91
39715;BME280;54166;53.172;-6.552;2023-02-13T05:20:00;100416.92;;;15.59;32.57
39715;BME280;54166;53.172;-6.552;2023-02-13T05:22:27;100407.37;;;15.16;32.86
39715;BME280;54166;53.172;-6.552;2023-02-13T05:24:55;100411.06;;;15.13;32.61
39715;BME280;54166;53.172;-6.552;2023-02-13T05:27:23;100406.33;;;15.51;32.62
39715;BME280;54166;53.172;-6.552;2023-02-13T05:29:50;100412.65;;;14.77;32.76
39715;BME280;54166;53.172;-6.552;2023-02-13T05:32:17;100418.89;;;14.76;32.79
39715;BME280;54166;53.172;-6.552;2023-02-13T05:34:45;100422.77;;;15.49;32.92
39715;BME280;54166;53.172;-6.552;2023-02-13T05:37:12;100424.18;;;15.08;33.04
39715;BME280;54166;53.172;-6.552;2023-02-13T05:39:39;100429.65;;;15.07;33.13
39715;BME280;54166;53.172;-6.552;2023-02-13T05:42:06;100424.04;;;15.07;33.26
39715;BME280;54166;53.172;-6.552;2023-02-13T05:44:33;100417.80;;;14.73;33.01
39715;BME280;54166;53.172;-6.552;2023-02-13T05:47:00;100416.71;;;15.46;33.32
39715;BME280;54166;53.172;-6.552;2023-02-13T05:49:27;100408.10;;;14.71;32.89
39715;BME280;54166;53.172;-6.552;2023-02-13T05:51:55;100408.56;;;15.04;33.22
39715;BME280;54166;53.172;-6.552;2023-02-13T05:54:22;100404.90;;;15.04;32.95
39715;BME280;54166;53.172;-6.552;2023-02-13T05:56:50;100402.08;;;15.03;33.32
39715;BME280;54166;53.172;-6.552;2023-02-13T05:59:17;100402.99;;;14.69;33.13
39715;BME280;54166;53.172;-6.552;2023-02-13T06:01:45;100393.81;;;15.02;33.41
39715;BME280;54166;53.172;-6.552;2023-02-13T06:04:12;100396.28;;;15.01;33.42
39715;BME280;54166;53.172;-6.552;2023-02-13T06:06:39;100398.92;;;14.67;33.31
39715;BME280;54166;53.172;-6.552;2023-02-13T06:09:06;100395.38;;;15.45;33.22
39715;BME280;54166;53.172;-6.552;2023-02-13T06:11:34;100395.42;;;15.02;33.27
39715;BME280;54166;53.172;-6.552;2023-02-13T06:14:01;100399.18;;;15.39;33.52
39715;BME280;54166;53.172;-6.552;2023-02-13T06:16:28;100397.86;;;15.36;33.59
39715;BME280;54166;53.172;-6.552;2023-02-13T06:18:55;100399.89;;;14.95;33.64
39715;BME280;54166;53.172;-6.552;2023-02-13T06:21:22;100398.36;;;15.33;33.53
39715;BME280;54166;53.172;-6.552;2023-02-13T06:23:49;100397.15;;;15.33;33.55
39715;BME280;54166;53.172;-6.552;2023-02-13T06:26:17;100399.46;;;15.34;33.45
39715;BME280;54166;53.172;-6.552;2023-02-13T06:28:44;100405.50;;;15.33;33.36
39715;BME280;54166;53.172;-6.552;2023-02-13T06:31:11;100413.28;;;15.32;33.38
39715;BME280;54166;53.172;-6.552;2023-02-13T06:33:38;100412.15;;;14.90;33.43
39715;BME280;54166;53.172;-6.552;2023-02-13T06:36:06;100414.75;;;15.29;33.44
39715;BME280;54166;53.172;-6.552;2023-02-13T06:38:33;100415.15;;;15.28;33.47
39715;BME280;54166;53.172;-6.552;2023-02-13T06:41:00;100412.87;;;14.88;33.49
39715;BME280;54166;53.172;-6.552;2023-02-13T06:43:28;100414.56;;;15.28;33.49
39715;BME280;54166;53.172;-6.552;2023-02-13T06:45:56;100415.53;;;15.27;33.46
39715;BME280;54166;53.172;-6.552;2023-02-13T06:48:23;100409.48;;;14.86;33.48
39715;BME280;54166;53.172;-6.552;2023-02-13T06:50:50;100408.55;;;15.25;33.51
39715;BME280;54166;53.172;-6.552;2023-02-13T06:53:17;100406.50;;;14.85;33.55
39715;BME280;54166;53.172;-6.552;2023-02-13T06:55:45;100405.67;;;15.25;33.53
39715;BME280;54166;53.172;-6.552;2023-02-13T06:58:12;100401.73;;;15.24;33.55
39715;BME280;54166;53.172;-6.552;2023-02-13T07:00:39;100400.29;;;14.83;33.59
39715;BME280;54166;53.172;-6.552;2023-02-13T07:03:06;100390.95;;;15.23;33.60
39715;BME280;54166;53.172;-6.552;2023-02-13T07:05:33;100393.32;;;14.81;33.62
39715;BME280;54166;53.172;-6.552;2023-02-13T07:08:00;100389.15;;;15.21;33.58
39715;BME280;54166;53.172;-6.552;2023-02-13T07:10:27;100385.60;;;14.81;33.57
39715;BME280;54166;53.172;-6.552;2023-02-13T07:12:54;100392.43;;;15.20;33.62
39715;BME280;54166;53.172;-6.552;2023-02-13T07:15:21;100389.13;;;15.20;33.63
39715;BME280;54166;53.172;-6.552;2023-02-13T07:17:54;100396.54;;;14.80;33.58
39715;BME280;54166;53.172;-6.552;2023-02-13T07:20:22;100395.83;;;14.77;33.63
39715;BME280;54166;53.172;-6.552;2023-02-13T07:22:50;100402.46;;;14.77;33.58
39715;BME280;54166;53.172;-6.552;2023-02-13T07:25:18;100397.34;;;14.77;33.60
39715;BME280;54166;53.172;-6.552;2023-02-13T07:27:45;100401.99;;;14.76;33.59
39715;BME280;54166;53.172;-6.552;2023-02-13T07:30:12;100398.77;;;15.16;33.59
39715;BME280;54166;53.172;-6.552;2023-02-13T07:32:40;100395.89;;;15.15;33.62
39715;BME280;54166;53.172;-6.552;2023-02-13T07:35:07;100407.06;;;15.14;33.59
39715;BME280;54166;53.172;-6.552;2023-02-13T07:37:35;100402.92;;;14.72;33.62
39715;BME280;54166;53.172;-6.552;2023-02-13T07:40:03;100398.70;;;15.11;33.66
39715;BME280;54166;53.172;-6.552;2023-02-13T07:42:32;100417.95;;;14.70;33.59
39715;BME280;54166;53.172;-6.552;2023-02-13T07:44:59;100421.80;;;15.10;33.60
39715;BME280;54166;53.172;-6.552;2023-02-13T07:47:27;100427.27;;;15.09;33.62
39715;BME280;54166;53.172;-6.552;2023-02-13T07:49:54;100422.56;;;14.68;33.63
39715;BME280;54166;53.172;-6.552;2023-02-13T07:52:21;100412.78;;;15.08;33.58
39715;BME280;54166;53.172;-6.552;2023-02-13T07:54:48;100418.60;;;15.06;33.68
39715;BME280;54166;53.172;-6.552;2023-02-13T07:57:16;100420.34;;;15.06;33.65
39715;BME280;54166;53.172;-6.552;2023-02-13T07:59:43;100422.41;;;15.05;33.66
39715;BME280;54166;53.172;-6.552;2023-02-13T08:02:11;100417.66;;;14.64;33.66
39715;BME280;54166;53.172;-6.552;2023-02-13T08:04:39;100418.78;;;15.04;33.69
39715;BME280;54166;53.172;-6.552;2023-02-13T08:07:07;100417.74;;;15.03;33.73
39715;BME280;54166;53.172;-6.552;2023-02-13T08:09:34;100418.08;;;15.03;33.63
39715;BME280;54166;53.172;-6.552;2023-02-13T08:12:01;100417.71;;;15.02;33.70
39715;BME280;54166;53.172;-6.552;2023-02-13T08:14:29;100410.72;;;15.01;33.70
39715;BME280;54166;53.172;-6.552;2023-02-13T08:16:57;100409.35;;;15.00;33.72
39715;BME280;54166;53.172;-6.552;2023-02-13T08:19:24;100416.04;;;15.00;33.69
39715;BME280;54166;53.172;-6.552;2023-02-13T08:21:52;100416.60;;;14.99;33.71
39715;BME280;54166;53.172;-6.552;2023-02-13T08:24:19;100423.85;;;14.99;33.69
39715;BME280;54166;53.172;-6.552;2023-02-13T08:26:46;100423.72;;;14.58;33.69
39715;BME280;54166;53.172;-6.552;2023-02-13T08:29:13;100428.05;;;15.00;33.87
39715;BME280;54166;53.172;-6.552;2023-02-13T08:31:40;100422.90;;;14.99;33.92
39715;BME280;54166;53.172;-6.552;2023-02-13T08:34:08;100424.99;;;15.31;33.92
39715;BME280;54166;53.172;-6.552;2023-02-13T08:36:35;100422.42;;;14.96;33.84
39715;BME280;54166;53.172;-6.552;2023-02-13T08:39:02;100416.45;;;14.94;33.71
39715;BME280;54166;53.172;-6.552;2023-02-13T08:41:29;100413.84;;;14.54;33.72
39715;BME280;54166;53.172;-6.552;2023-02-13T08:43:56;100416.20;;;14.93;33.71
39715;BME280;54166;53.172;-6.552;2023-02-13T08:46:23;100419.58;;;14.52;33.57
39715;BME280;54166;53.172;-6.552;2023-02-13T08:48:50;100421.73;;;14.50;33.57
39715;BME280;54166;53.172;-6.552;2023-02-13T08:51:18;100432.87;;;14.50;33.48
39715;BME280;54166;53.172;-6.552;2023-02-13T08:53:45;100432.46;;;14.89;33.42
39715;BME280;54166;53.172;-6.552;2023-02-13T08:56:13;100435.03;;;14.89;33.32
39715;BME280;54166;53.172;-6.552;2023-02-13T08:58:40;100429.10;;;14.47;33.29
39715;BME280;54166;53.172;-6.552;2023-02-13T09:01:07;100425.21;;;14.47;33.34
39715;BME280;54166;53.172;-6.552;2023-02-13T09:03:35;100424.67;;;14.86;33.29
39715;BME280;54166;53.172;-6.552;2023-02-13T09:06:03;100422.78;;;14.86;33.14
39715;BME280;54166;53.172;-6.552;2023-02-13T09:08:31;100429.86;;;14.86;33.18
39715;BME280;54166;53.172;-6.552;2023-02-13T09:11:00;100422.97;;;14.85;33.24
39715;BME280;54166;53.172;-6.552;2023-02-13T09:13:28;100421.51;;;14.86;33.05
39715;BME280;54166;53.172;-6.552;2023-02-13T09:15:58;100417.16;;;14.46;33.13
39715;BME280;54166;53.172;-6.552;2023-02-13T09:18:26;100417.70;;;14.87;33.20
39715;BME280;54166;53.172;-6.552;2023-02-13T09:20:58;100414.67;;;14.88;33.07
39715;BME280;54166;53.172;-6.552;2023-02-13T09:23:26;100407.89;;;14.87;33.05
39715;BME280;54166;53.172;-6.552;2023-02-13T09:25:53;100404.40;;;14.88;32.92
39715;BME280;54166;53.172;-6.552;2023-02-13T09:28:20;100398.27;;;14.89;32.83
39715;BME280;54166;53.172;-6.552;2023-02-13T09:30:47;100392.01;;;14.90;32.92
39715;BME280;54166;53.172;-6.552;2023-02-13T09:33:15;100399.13;;;14.48;32.81
39715;BME280;54166;53.172;-6.552;2023-02-13T09:35:42;100396.41;;;14.87;32.91
39715;BME280;54166;53.172;-6.552;2023-02-13T09:38:09;100398.50;;;14.46;32.73
39715;BME280;54166;53.172;-6.552;2023-02-13T09:40:38;100395.06;;;14.86;32.93
39715;BME280;54166;53.172;-6.552;2023-02-13T09:43:13;100393.48;;;14.85;32.81
39715;BME280;54166;53.172;-6.552;2023-02-13T09:45:43;100396.94;;;14.84;32.96
39715;BME280;54166;53.172;-6.552;2023-02-13T09:48:17;100390.26;;;15.51;33.00
39715;BME280;54166;53.172;-6.552;2023-02-13T09:50:48;100386.68;;;14.83;32.99
39715;BME280;54166;53.172;-6.552;2023-02-13T09:53:20;100396.45;;;14.84;33.02
39715;BME280;54166;53.172;-6.552;2023-02-13T09:55:55;100401.72;;;14.82;32.95
39715;BME280;54166;53.172;-6.552;2023-02-13T09:58:34;100395.13;;;14.81;32.96
39715;BME280;54166;53.172;-6.552;2023-02-13T10:01:12;100402.58;;;14.79;32.92
39715;BME280;54166;53.172;-6.552;2023-02-13T10:03:47;100411.67;;;14.76;32.89
39715;BME280;54166;53.172;-6.552;2023-02-13T10:06:24;100404.78;;;14.75;32.73
39715;BME280;54166;53.172;-6.552;2023-02-13T10:09:03;100402.30;;;14.77;32.86
39715;BME280;54166;53.172;-6.552;2023-02-13T10:11:44;100398.89;;;14.75;32.94
39715;BME280;54166;53.172;-6.552;2023-02-13T10:14:17;100401.17;;;14.73;32.96
39715;BME280;54166;53.172;-6.552;2023-02-13T10:16:49;100397.21;;;14.73;32.96
39715;BME280;54166;53.172;-6.552;2023-02-13T10:19:29;100401.15;;;14.74;32.95
39715;BME280;54166;53.172;-6.552;2023-02-13T10:22:01;100398.64;;;14.72;32.95
39715;BME280;54166;53.172;-6.552;2023-02-13T10:24:34;100400.03;;;14.72;32.86
39715;BME280;54166;53.172;-6.552;2023-02-13T10:27:18;100404.66;;;14.72;32.79
39715;BME280;54166;53.172;-6.552;2023-02-13T10:29:51;100404.95;;;14.69;32.81
39715;BME280;54166;53.172;-6.552;2023-02-13T10:32:25;100405.92;;;14.70;32.77
39715;BME280;54166;53.172;-6.552;2023-02-13T10:34:58;100406.59;;;14.72;32.83
39715;BME280;54166;53.172;-6.552;2023-02-13T10:37:27;100401.07;;;14.73;32.80
39715;BME280;54166;53.172;-6.552;2023-02-13T10:39:55;100399.58;;;14.74;32.76
39715;BME280;54166;53.172;-6.552;2023-02-13T10:42:31;100395.35;;;14.74;32.69
39715;BME280;54166;53.172;-6.552;2023-02-13T10:45:17;100390.58;;;14.71;32.74
39715;BME280;54166;53.172;-6.552;2023-02-13T10:48:00;100393.90;;;14.68;32.78
39715;BME280;54166;53.172;-6.552;2023-02-13T10:50:32;100392.07;;;14.70;32.60
39715;BME280;54166;53.172;-6.552;2023-02-13T10:53:12;100383.56;;;15.05;32.55
39715;BME280;54166;53.172;-6.552;2023-02-13T10:56:22;100388.64;;;16.09;32.59
39715;BME280;54166;53.172;-6.552;2023-02-13T10:59:07;100384.68;;;14.64;32.62
39715;BME280;54166;53.172;-6.552;2023-02-13T11:01:47;100385.50;;;14.65;32.56
39715;BME280;54166;53.172;-6.552;2023-02-13T11:04:19;100379.72;;;14.67;32.60
39715;BME280;54166;53.172;-6.552;2023-02-13T11:06:54;100373.42;;;14.70;32.64
39715;BME280;54166;53.172;-6.552;2023-02-13T11:09:22;100363.74;;;14.71;32.47
39715;BME280;54166;53.172;-6.552;2023-02-13T11:11:50;100363.33;;;14.83;32.46
39715;BME280;54166;53.172;-6.552;2023-02-13T11:14:20;100371.19;;;15.07;32.36
39715;BME280;54166;53.172;-6.552;2023-02-13T11:16:53;100361.22;;;15.00;31.95
39715;BME280;54166;53.172;-6.552;2023-02-13T11:19:28;100360.43;;;15.33;31.58
39715;BME280;54166;53.172;-6.552;2023-02-13T11:22:00;100353.30;;;15.79;31.17
39715;BME280;54166;53.172;-6.552;2023-02-13T11:24:29;100354.95;;;17.07;29.54
39715;BME280;54166;53.172;-6.552;2023-02-13T11:27:00;100361.95;;;18.79;27.51
39715;BME280;54166;53.172;-6.552;2023-02-13T11:29:30;100364.93;;;19.12;26.53
39715;BME280;54166;53.172;-6.552;2023-02-13T11:32:05;100361.48;;;19.66;25.82
39715;BME280;54166;53.172;-6.552;2023-02-13T11:34:34;100355.57;;;20.82;24.95
39715;BME280;54166;53.172;-6.552;2023-02-13T11:37:16;100362.86;;;21.00;24.61
39715;BME280;54166;53.172;-6.552;2023-02-13T11:39:45;100374.15;;;21.19;24.38
39715;BME280;54166;53.172;-6.552;2023-02-13T11:42:14;100371.81;;;21.16;24.14
39715;BME280;54166;53.172;-6.552;2023-02-13T11:44:47;100365.08;;;20.74;24.48
39715;BME280;54166;53.172;-6.552;2023-02-13T11:47:15;100371.18;;;20.26;25.09
39715;BME280;54166;53.172;-6.552;2023-02-13T11:49:45;100361.03;;;19.17;25.92
39715;BME280;54166;53.172;-6.552;2023-02-13T11:52:23;100360.53;;;19.10;26.44
39715;BME280;54166;53.172;-6.552;2023-02-13T11:54:57;100359.13;;;18.85;26.75
39715;BME280;54166;53.172;-6.552;2023-02-13T11:57:29;100357.58;;;20.12;26.01
39715;BME280;54166;53.172;-6.552;2023-02-13T11:59:59;100358.02;;;21.01;24.91
39715;BME280;54166;53.172;-6.552;2023-02-13T12:02:29;100357.63;;;21.76;23.86
39715;BME280;54166;53.172;-6.552;2023-02-13T12:05:20;100346.59;;;21.95;23.41
39715;BME280;54166;53.172;-6.552;2023-02-13T12:07:49;100351.35;;;22.06;23.48
39715;BME280;54166;53.172;-6.552;2023-02-13T12:10:22;100356.63;;;21.59;23.03
39715;BME280;54166;53.172;-6.552;2023-02-13T12:12:54;100354.79;;;21.93;23.05
39715;BME280;54166;53.172;-6.552;2023-02-13T12:15:24;100347.50;;;20.75;23.71
39715;BME280;54166;53.172;-6.552;2023-02-13T12:18:02;100332.37;;;20.31;24.35
39715;BME280;54166;53.172;-6.552;2023-02-13T12:20:38;100326.80;;;19.82;25.13
39715;BME280;54166;53.172;-6.552;2023-02-13T12:23:21;100323.96;;;19.33;25.66
39715;BME280;54166;53.172;-6.552;2023-02-13T12:26:00;100317.12;;;18.49;26.20
39715;BME280;54166;53.172;-6.552;2023-02-13T12:28:43;100317.08;;;18.63;26.70
39715;BME280;54166;53.172;-6.552;2023-02-13T12:31:24;100322.65;;;18.45;27.11
39715;BME280;54166;53.172;-6.552;2023-02-13T12:34:44;100325.10;;;17.66;27.43
39715;BME280;54166;53.172;-6.552;2023-02-13T12:37:27;100326.55;;;17.80;27.89
39715;BME280;54166;53.172;-6.552;2023-02-13T12:40:12;100326.29;;;17.51;28.10
39715;BME280;54166;53.172;-6.552;2023-02-13T12:42:53;100326.41;;;17.63;28.21
39715;BME280;54166;53.172;-6.552;2023-02-13T12:45:32;100328.66;;;17.01;28.47
39715;BME280;54166;53.172;-6.552;2023-02-13T12:48:16;100320.23;;;17.06;28.84
39715;BME280;54166;53.172;-6.552;2023-02-13T12:50:57;100319.32;;;16.90;28.99
39715;BME280;54166;53.172;-6.552;2023-02-13T12:53:41;100321.60;;;16.67;29.20
39715;BME280;54166;53.172;-6.552;2023-02-13T12:56:38;100312.99;;;16.89;29.45
39715;BME280;54166;53.172;-6.552;2023-02-13T12:59:13;100318.29;;;16.30;29.71
39715;BME280;54166;53.172;-6.552;2023-02-13T13:03:41;100313.61;;;18.08;30.12
39715;BME280;54166;53.172;-6.552;2023-02-13T13:06:28;100320.12;;;16.35;30.27
39715;BME280;54166;53.172;-6.552;2023-02-13T13:09:44;100319.59;;;17.39;30.45
39715;BME280;54166;53.172;-6.552;2023-02-13T13:12:22;100293.98;;;15.77;30.62
39715;BME280;54166;53.172;-6.552;2023-02-13T13:14:56;100279.01;;;16.49;30.66